sensor_id;sensor_type;location;lat;lon;timestamp;P1;durP1;ratioP1;P2;durP2;ratioP2
77838;SDS011;67034;43.226;27.932;2023-04-03T00:00:50;4.35;;;2.38;;
77838;SDS011;67034;43.226;27.932;2023-04-03T00:03:16;3.15;;;2.00;;
77838;SDS011;67034;43.226;27.932;2023-04-03T00:05:42;2.70;;;2.03;;
77838;SDS011;67034;43.226;27.932;2023-04-03T00:08:08;3.38;;;1.85;;
77838;SDS011;67034;43.226;27.932;2023-04-03T00:10:34;2.95;;;2.10;;
77838;SDS011;67034;43.226;27.932;2023-04-03T00:13:00;3.20;;;2.63;;
77838;SDS011;67034;43.226;27.932;2023-04-03T00:15:26;3.20;;;2.13;;
77838;SDS011;67034;43.226;27.932;2023-04-03T00:17:53;4.20;;;2.97;;
77838;SDS011;67034;43.226;27.932;2023-04-03T00:20:19;4.82;;;2.58;;
77838;SDS011;67034;43.226;27.932;2023-04-03T00:22:44;4.10;;;2.67;;
77838;SDS011;67034;43.226;27.932;2023-04-03T00:25:10;7.28;;;3.80;;
77838;SDS011;67034;43.226;27.932;2023-04-03T00:27:36;8.52;;;4.10;;
77838;SDS011;67034;43.226;27.932;2023-04-03T00:30:03;5.95;;;2.63;;
77838;SDS011;67034;43.226;27.932;2023-04-03T00:32:29;4.50;;;2.88;;
77838;SDS011;67034;43.226;27.932;2023-04-03T00:34:56;4.05;;;2.78;;
77838;SDS011;67034;43.226;27.932;2023-04-03T00:37:22;8.07;;;3.58;;
77838;SDS011;67034;43.226;27.932;2023-04-03T00:39:48;5.63;;;3.20;;
77838;SDS011;67034;43.226;27.932;2023-04-03T00:42:14;3.22;;;2.55;;
77838;SDS011;67034;43.226;27.932;2023-04-03T00:47:42;4.40;;;3.22;;
77838;SDS011;67034;43.226;27.932;2023-04-03T00:50:10;7.22;;;3.92;;
77838;SDS011;67034;43.226;27.932;2023-04-03T00:52:36;7.88;;;4.20;;
77838;SDS011;67034;43.226;27.932;2023-04-03T00:55:04;6.85;;;3.88;;
77838;SDS011;67034;43.226;27.932;2023-04-03T00:57:32;5.85;;;3.67;;
77838;SDS011;67034;43.226;27.932;2023-04-03T01:00:00;5.75;;;3.70;;
77838;SDS011;67034;43.226;27.932;2023-04-03T01:02:29;5.40;;;3.92;;
77838;SDS011;67034;43.226;27.932;2023-04-03T01:04:55;5.88;;;3.50;;
77838;SDS011;67034;43.226;27.932;2023-04-03T01:07:23;5.88;;;3.80;;
77838;SDS011;67034;43.226;27.932;2023-04-03T01:09:53;4.90;;;3.65;;
77838;SDS011;67034;43.226;27.932;2023-04-03T01:12:22;5.30;;;3.85;;
77838;SDS011;67034;43.226;27.932;2023-04-03T01:14:50;6.72;;;4.47;;
77838;SDS011;67034;43.226;27.932;2023-04-03T01:17:26;7.47;;;4.53;;
77838;SDS011;67034;43.226;27.932;2023-04-03T01:19:57;8.32;;;4.35;;
77838;SDS011;67034;43.226;27.932;2023-04-03T01:22:43;6.07;;;3.70;;
77838;SDS011;67034;43.226;27.932;2023-04-03T01:25:18;5.40;;;3.55;;
77838;SDS011;67034;43.226;27.932;2023-04-03T01:27:43;5.25;;;3.72;;
77838;SDS011;67034;43.226;27.932;2023-04-03T01:30:10;5.00;;;3.30;;
77838;SDS011;67034;43.226;27.932;2023-04-03T01:32:39;6.53;;;3.63;;
77838;SDS011;67034;43.226;27.932;2023-04-03T01:35:06;6.00;;;3.38;;
77838;SDS011;67034;43.226;27.932;2023-04-03T01:37:33;4.47;;;2.90;;
77838;SDS011;67034;43.226;27.932;2023-04-03T01:39:59;3.13;;;2.45;;
77838;SDS011;67034;43.226;27.932;2023-04-03T01:42:25;4.30;;;2.60;;
77838;SDS011;67034;43.226;27.932;2023-04-03T01:44:51;4.82;;;2.67;;
77838;SDS011;67034;43.226;27.932;2023-04-03T01:47:17;3.30;;;2.70;;
77838;SDS011;67034;43.226;27.932;2023-04-03T01:49:44;3.50;;;2.70;;
77838;SDS011;67034;43.226;27.932;2023-04-03T01:52:10;6.13;;;3.45;;
77838;SDS011;67034;43.226;27.932;2023-04-03T01:54:36;5.68;;;2.72;;
77838;SDS011;67034;43.226;27.932;2023-04-03T01:57:01;4.43;;;3.22;;
77838;SDS011;67034;43.226;27.932;2023-04-03T01:59:27;6.30;;;4.45;;
77838;SDS011;67034;43.226;27.932;2023-04-03T02:01:53;7.00;;;5.28;;
77838;SDS011;67034;43.226;27.932;2023-04-03T02:04:18;3.35;;;2.20;;
77838;SDS011;67034;43.226;27.932;2023-04-03T02:06:46;5.80;;;3.80;;
77838;SDS011;67034;43.226;27.932;2023-04-03T02:09:11;5.68;;;3.30;;
77838;SDS011;67034;43.226;27.932;2023-04-03T02:11:37;6.60;;;4.22;;
77838;SDS011;67034;43.226;27.932;2023-04-03T02:14:03;12.70;;;7.60;;
77838;SDS011;67034;43.226;27.932;2023-04-03T02:16:29;13.95;;;7.72;;
77838;SDS011;67034;43.226;27.932;2023-04-03T02:18:55;10.38;;;6.35;;
77838;SDS011;67034;43.226;27.932;2023-04-03T02:21:21;13.07;;;7.70;;
77838;SDS011;67034;43.226;27.932;2023-04-03T02:23:48;8.15;;;5.00;;
77838;SDS011;67034;43.226;27.932;2023-04-03T02:26:15;14.20;;;9.23;;
77838;SDS011;67034;43.226;27.932;2023-04-03T02:28:41;12.45;;;7.43;;
77838;SDS011;67034;43.226;27.932;2023-04-03T02:31:07;12.73;;;7.65;;
77838;SDS011;67034;43.226;27.932;2023-04-03T02:33:34;8.40;;;5.55;;
77838;SDS011;67034;43.226;27.932;2023-04-03T02:36:01;17.77;;;8.50;;
77838;SDS011;67034;43.226;27.932;2023-04-03T02:38:28;12.70;;;6.60;;
77838;SDS011;67034;43.226;27.932;2023-04-03T02:41:00;12.02;;;6.28;;
77838;SDS011;67034;43.226;27.932;2023-04-03T02:45:52;7.97;;;5.50;;
77838;SDS011;67034;43.226;27.932;2023-04-03T02:48:17;7.05;;;4.53;;
77838;SDS011;67034;43.226;27.932;2023-04-03T02:50:43;7.65;;;4.22;;
77838;SDS011;67034;43.226;27.932;2023-04-03T02:55:34;4.28;;;2.50;;
77838;SDS011;67034;43.226;27.932;2023-04-03T03:00:27;5.03;;;2.42;;
77838;SDS011;67034;43.226;27.932;2023-04-03T03:05:18;3.58;;;2.20;;
77838;SDS011;67034;43.226;27.932;2023-04-03T03:07:44;3.40;;;2.60;;
77838;SDS011;67034;43.226;27.932;2023-04-03T03:10:09;6.45;;;2.85;;
77838;SDS011;67034;43.226;27.932;2023-04-03T03:12:35;4.32;;;2.63;;
77838;SDS011;67034;43.226;27.932;2023-04-03T03:15:02;3.63;;;2.78;;
77838;SDS011;67034;43.226;27.932;2023-04-03T03:17:28;3.88;;;2.45;;
77838;SDS011;67034;43.226;27.932;2023-04-03T03:19:54;4.43;;;2.97;;
77838;SDS011;67034;43.226;27.932;2023-04-03T03:22:20;5.45;;;3.75;;
77838;SDS011;67034;43.226;27.932;2023-04-03T03:24:45;14.93;;;5.70;;
77838;SDS011;67034;43.226;27.932;2023-04-03T03:27:11;6.93;;;3.72;;
77838;SDS011;67034;43.226;27.932;2023-04-03T03:29:37;6.57;;;4.03;;
77838;SDS011;67034;43.226;27.932;2023-04-03T03:32:04;6.63;;;4.03;;
77838;SDS011;67034;43.226;27.932;2023-04-03T03:34:30;7.63;;;3.63;;
77838;SDS011;67034;43.226;27.932;2023-04-03T03:36:56;5.60;;;2.83;;
77838;SDS011;67034;43.226;27.932;2023-04-03T03:39:22;7.07;;;2.88;;
77838;SDS011;67034;43.226;27.932;2023-04-03T03:41:47;3.33;;;2.30;;
77838;SDS011;67034;43.226;27.932;2023-04-03T03:44:14;3.47;;;2.15;;
77838;SDS011;67034;43.226;27.932;2023-04-03T03:46:40;3.53;;;2.47;;
77838;SDS011;67034;43.226;27.932;2023-04-03T03:49:07;2.75;;;1.92;;
77838;SDS011;67034;43.226;27.932;2023-04-03T03:51:33;3.88;;;2.50;;
77838;SDS011;67034;43.226;27.932;2023-04-03T03:53:59;4.00;;;2.20;;
77838;SDS011;67034;43.226;27.932;2023-04-03T03:56:25;4.30;;;2.58;;
77838;SDS011;67034;43.226;27.932;2023-04-03T03:58:51;9.73;;;4.30;;
77838;SDS011;67034;43.226;27.932;2023-04-03T04:01:17;6.03;;;3.65;;
77838;SDS011;67034;43.226;27.932;2023-04-03T04:03:43;8.15;;;4.35;;
77838;SDS011;67034;43.226;27.932;2023-04-03T04:06:10;9.80;;;5.90;;
77838;SDS011;67034;43.226;27.932;2023-04-03T04:08:36;8.20;;;5.82;;
77838;SDS011;67034;43.226;27.932;2023-04-03T04:11:01;22.63;;;9.75;;
77838;SDS011;67034;43.226;27.932;2023-04-03T04:13:27;13.30;;;7.35;;
77838;SDS011;67034;43.226;27.932;2023-04-03T04:15:53;12.88;;;5.95;;
77838;SDS011;67034;43.226;27.932;2023-04-03T04:18:19;10.35;;;5.75;;
77838;SDS011;67034;43.226;27.932;2023-04-03T04:20:46;7.03;;;4.40;;
77838;SDS011;67034;43.226;27.932;2023-04-03T04:23:13;8.52;;;4.38;;
77838;SDS011;67034;43.226;27.932;2023-04-03T04:25:39;5.45;;;3.85;;
77838;SDS011;67034;43.226;27.932;2023-04-03T04:28:05;4.03;;;2.38;;
77838;SDS011;67034;43.226;27.932;2023-04-03T04:30:31;6.60;;;2.55;;
77838;SDS011;67034;43.226;27.932;2023-04-03T04:32:56;5.60;;;3.03;;
77838;SDS011;67034;43.226;27.932;2023-04-03T04:35:22;4.00;;;2.88;;
77838;SDS011;67034;43.226;27.932;2023-04-03T04:37:48;5.28;;;2.63;;
77838;SDS011;67034;43.226;27.932;2023-04-03T04:40:15;4.57;;;3.03;;
77838;SDS011;67034;43.226;27.932;2023-04-03T04:42:41;3.72;;;2.65;;
77838;SDS011;67034;43.226;27.932;2023-04-03T04:45:08;4.85;;;3.00;;
77838;SDS011;67034;43.226;27.932;2023-04-03T04:47:34;6.25;;;3.25;;
77838;SDS011;67034;43.226;27.932;2023-04-03T04:50:00;3.85;;;2.38;;
77838;SDS011;67034;43.226;27.932;2023-04-03T04:52:26;4.22;;;2.20;;
77838;SDS011;67034;43.226;27.932;2023-04-03T04:54:52;4.65;;;2.70;;
77838;SDS011;67034;43.226;27.932;2023-04-03T04:57:19;4.50;;;3.20;;
77838;SDS011;67034;43.226;27.932;2023-04-03T04:59:45;3.53;;;1.95;;
77838;SDS011;67034;43.226;27.932;2023-04-03T05:02:10;2.72;;;2.22;;
77838;SDS011;67034;43.226;27.932;2023-04-03T05:04:36;3.30;;;2.20;;
77838;SDS011;67034;43.226;27.932;2023-04-03T05:07:02;2.80;;;2.17;;
77838;SDS011;67034;43.226;27.932;2023-04-03T05:09:28;4.82;;;2.10;;
77838;SDS011;67034;43.226;27.932;2023-04-03T05:11:53;3.50;;;1.95;;
77838;SDS011;67034;43.226;27.932;2023-04-03T05:14:20;5.10;;;2.55;;
77838;SDS011;67034;43.226;27.932;2023-04-03T05:16:46;7.30;;;3.63;;
77838;SDS011;67034;43.226;27.932;2023-04-03T05:19:13;8.63;;;4.88;;
77838;SDS011;67034;43.226;27.932;2023-04-03T05:21:39;11.23;;;5.35;;
77838;SDS011;67034;43.226;27.932;2023-04-03T05:24:05;5.53;;;3.30;;
77838;SDS011;67034;43.226;27.932;2023-04-03T05:26:34;3.00;;;2.08;;
77838;SDS011;67034;43.226;27.932;2023-04-03T05:29:00;3.00;;;2.15;;
77838;SDS011;67034;43.226;27.932;2023-04-03T05:31:27;2.83;;;2.20;;
77838;SDS011;67034;43.226;27.932;2023-04-03T05:33:54;2.50;;;1.90;;
77838;SDS011;67034;43.226;27.932;2023-04-03T05:36:20;3.53;;;2.08;;
77838;SDS011;67034;43.226;27.932;2023-04-03T05:38:46;3.10;;;2.03;;
77838;SDS011;67034;43.226;27.932;2023-04-03T05:41:12;3.85;;;2.08;;
77838;SDS011;67034;43.226;27.932;2023-04-03T05:43:38;3.17;;;2.35;;
77838;SDS011;67034;43.226;27.932;2023-04-03T05:46:06;3.85;;;2.50;;
77838;SDS011;67034;43.226;27.932;2023-04-03T05:48:36;2.97;;;2.20;;
77838;SDS011;67034;43.226;27.932;2023-04-03T05:51:02;2.85;;;1.92;;
77838;SDS011;67034;43.226;27.932;2023-04-03T05:53:31;2.63;;;2.13;;
77838;SDS011;67034;43.226;27.932;2023-04-03T05:56:01;3.22;;;2.40;;
77838;SDS011;67034;43.226;27.932;2023-04-03T05:58:26;2.88;;;2.03;;
77838;SDS011;67034;43.226;27.932;2023-04-03T06:00:52;3.53;;;2.40;;
77838;SDS011;67034;43.226;27.932;2023-04-03T06:03:18;4.10;;;2.20;;
77838;SDS011;67034;43.226;27.932;2023-04-03T06:05:45;3.40;;;2.30;;
77838;SDS011;67034;43.226;27.932;2023-04-03T06:08:11;4.35;;;2.70;;
77838;SDS011;67034;43.226;27.932;2023-04-03T06:10:37;3.17;;;2.58;;
77838;SDS011;67034;43.226;27.932;2023-04-03T06:13:04;4.80;;;2.63;;
77838;SDS011;67034;43.226;27.932;2023-04-03T06:15:29;4.03;;;2.83;;
77838;SDS011;67034;43.226;27.932;2023-04-03T06:17:55;4.10;;;2.53;;
77838;SDS011;67034;43.226;27.932;2023-04-03T06:20:21;3.25;;;2.33;;
77838;SDS011;67034;43.226;27.932;2023-04-03T06:22:48;4.75;;;2.67;;
77838;SDS011;67034;43.226;27.932;2023-04-03T06:25:14;6.70;;;3.17;;
77838;SDS011;67034;43.226;27.932;2023-04-03T06:27:42;3.03;;;2.30;;
77838;SDS011;67034;43.226;27.932;2023-04-03T06:30:08;4.78;;;3.05;;
77838;SDS011;67034;43.226;27.932;2023-04-03T06:32:34;2.97;;;2.13;;
77838;SDS011;67034;43.226;27.932;2023-04-03T06:35:00;5.05;;;2.90;;
77838;SDS011;67034;43.226;27.932;2023-04-03T06:37:26;3.70;;;2.38;;
77838;SDS011;67034;43.226;27.932;2023-04-03T06:39:54;5.47;;;3.28;;
77838;SDS011;67034;43.226;27.932;2023-04-03T06:42:20;4.43;;;3.05;;
77838;SDS011;67034;43.226;27.932;2023-04-03T06:44:46;3.83;;;2.90;;
77838;SDS011;67034;43.226;27.932;2023-04-03T06:47:12;4.20;;;2.63;;
77838;SDS011;67034;43.226;27.932;2023-04-03T06:49:39;4.10;;;2.65;;
77838;SDS011;67034;43.226;27.932;2023-04-03T06:52:04;4.90;;;2.63;;
77838;SDS011;67034;43.226;27.932;2023-04-03T06:54:30;3.35;;;2.42;;
77838;SDS011;67034;43.226;27.932;2023-04-03T06:56:57;4.05;;;2.60;;
77838;SDS011;67034;43.226;27.932;2023-04-03T06:59:23;3.55;;;2.75;;
77838;SDS011;67034;43.226;27.932;2023-04-03T07:01:50;3.80;;;2.90;;
77838;SDS011;67034;43.226;27.932;2023-04-03T07:04:16;3.70;;;3.22;;
77838;SDS011;67034;43.226;27.932;2023-04-03T07:06:42;3.58;;;2.50;;
77838;SDS011;67034;43.226;27.932;2023-04-03T07:09:07;3.63;;;2.53;;
77838;SDS011;67034;43.226;27.932;2023-04-03T07:11:34;9.82;;;2.40;;
77838;SDS011;67034;43.226;27.932;2023-04-03T07:14:01;4.38;;;2.55;;
77838;SDS011;67034;43.226;27.932;2023-04-03T07:16:27;3.58;;;2.35;;
77838;SDS011;67034;43.226;27.932;2023-04-03T07:18:53;3.25;;;2.40;;
77838;SDS011;67034;43.226;27.932;2023-04-03T07:21:18;3.13;;;2.40;;
77838;SDS011;67034;43.226;27.932;2023-04-03T07:23:44;5.05;;;2.47;;
77838;SDS011;67034;43.226;27.932;2023-04-03T07:26:10;3.53;;;2.60;;
77838;SDS011;67034;43.226;27.932;2023-04-03T07:28:35;3.17;;;2.30;;
77838;SDS011;67034;43.226;27.932;2023-04-03T07:31:03;4.75;;;3.25;;
77838;SDS011;67034;43.226;27.932;2023-04-03T07:33:31;4.55;;;2.47;;
77838;SDS011;67034;43.226;27.932;2023-04-03T07:35:57;3.67;;;2.47;;
77838;SDS011;67034;43.226;27.932;2023-04-03T07:38:23;3.50;;;2.63;;
77838;SDS011;67034;43.226;27.932;2023-04-03T07:40:50;3.92;;;2.65;;
77838;SDS011;67034;43.226;27.932;2023-04-03T07:43:18;9.07;;;5.25;;
77838;SDS011;67034;43.226;27.932;2023-04-03T07:45:45;10.20;;;5.10;;
77838;SDS011;67034;43.226;27.932;2023-04-03T07:48:13;11.57;;;4.88;;
77838;SDS011;67034;43.226;27.932;2023-04-03T07:50:39;8.85;;;4.35;;
77838;SDS011;67034;43.226;27.932;2023-04-03T07:53:06;8.45;;;5.00;;
77838;SDS011;67034;43.226;27.932;2023-04-03T07:55:33;10.38;;;5.47;;
77838;SDS011;67034;43.226;27.932;2023-04-03T07:57:59;9.48;;;4.47;;
77838;SDS011;67034;43.226;27.932;2023-04-03T08:00:25;8.05;;;4.47;;
77838;SDS011;67034;43.226;27.932;2023-04-03T08:02:50;5.05;;;3.97;;
77838;SDS011;67034;43.226;27.932;2023-04-03T08:05:18;9.73;;;4.65;;
77838;SDS011;67034;43.226;27.932;2023-04-03T08:07:47;9.27;;;5.28;;
77838;SDS011;67034;43.226;27.932;2023-04-03T08:10:14;6.65;;;4.57;;
77838;SDS011;67034;43.226;27.932;2023-04-03T08:12:40;8.23;;;4.28;;
77838;SDS011;67034;43.226;27.932;2023-04-03T08:15:07;11.02;;;5.05;;
77838;SDS011;67034;43.226;27.932;2023-04-03T08:17:33;11.57;;;5.00;;
77838;SDS011;67034;43.226;27.932;2023-04-03T08:20:00;10.38;;;4.70;;
77838;SDS011;67034;43.226;27.932;2023-04-03T08:22:27;8.77;;;4.47;;
77838;SDS011;67034;43.226;27.932;2023-04-03T08:24:53;9.18;;;4.53;;
77838;SDS011;67034;43.226;27.932;2023-04-03T08:27:18;7.75;;;4.60;;
77838;SDS011;67034;43.226;27.932;2023-04-03T08:29:44;7.95;;;3.72;;
77838;SDS011;67034;43.226;27.932;2023-04-03T08:32:10;7.15;;;5.32;;
77838;SDS011;67034;43.226;27.932;2023-04-03T08:34:36;8.82;;;3.88;;
77838;SDS011;67034;43.226;27.932;2023-04-03T08:37:04;10.80;;;6.05;;
77838;SDS011;67034;43.226;27.932;2023-04-03T08:39:32;5.82;;;4.20;;
77838;SDS011;67034;43.226;27.932;2023-04-03T08:41:58;10.40;;;4.68;;
77838;SDS011;67034;43.226;27.932;2023-04-03T08:44:31;7.80;;;4.72;;
77838;SDS011;67034;43.226;27.932;2023-04-03T08:47:04;10.60;;;5.93;;
77838;SDS011;67034;43.226;27.932;2023-04-03T08:49:39;8.90;;;5.07;;
77838;SDS011;67034;43.226;27.932;2023-04-03T08:52:12;8.13;;;5.05;;
77838;SDS011;67034;43.226;27.932;2023-04-03T08:54:46;7.50;;;4.40;;
77838;SDS011;67034;43.226;27.932;2023-04-03T08:57:16;8.38;;;4.90;;
77838;SDS011;67034;43.226;27.932;2023-04-03T08:59:44;8.07;;;5.60;;
77838;SDS011;67034;43.226;27.932;2023-04-03T09:02:17;8.73;;;5.50;;
77838;SDS011;67034;43.226;27.932;2023-04-03T09:04:49;8.55;;;5.22;;
77838;SDS011;67034;43.226;27.932;2023-04-03T09:07:16;7.70;;;5.60;;
77838;SDS011;67034;43.226;27.932;2023-04-03T09:09:52;13.88;;;6.07;;
77838;SDS011;67034;43.226;27.932;2023-04-03T09:12:19;9.13;;;5.75;;
77838;SDS011;67034;43.226;27.932;2023-04-03T09:17:24;10.27;;;6.63;;
77838;SDS011;67034;43.226;27.932;2023-04-03T09:20:03;14.02;;;5.80;;
77838;SDS011;67034;43.226;27.932;2023-04-03T09:22:36;13.60;;;6.03;;
77838;SDS011;67034;43.226;27.932;2023-04-03T09:25:10;8.07;;;5.25;;
77838;SDS011;67034;43.226;27.932;2023-04-03T09:27:39;9.43;;;4.30;;
77838;SDS011;67034;43.226;27.932;2023-04-03T09:30:06;7.78;;;3.72;;
77838;SDS011;67034;43.226;27.932;2023-04-03T09:32:37;6.72;;;4.22;;
77838;SDS011;67034;43.226;27.932;2023-04-03T09:35:04;6.55;;;4.50;;
77838;SDS011;67034;43.226;27.932;2023-04-03T09:37:40;9.30;;;5.22;;
77838;SDS011;67034;43.226;27.932;2023-04-03T09:42:56;10.13;;;6.13;;
77838;SDS011;67034;43.226;27.932;2023-04-03T09:45:23;10.75;;;6.78;;
77838;SDS011;67034;43.226;27.932;2023-04-03T09:47:52;8.48;;;6.07;;
77838;SDS011;67034;43.226;27.932;2023-04-03T09:50:30;9.40;;;4.90;;
77838;SDS011;67034;43.226;27.932;2023-04-03T09:52:55;7.28;;;4.25;;
77838;SDS011;67034;43.226;27.932;2023-04-03T09:55:22;8.80;;;5.13;;
77838;SDS011;67034;43.226;27.932;2023-04-03T09:57:55;7.38;;;4.60;;
77838;SDS011;67034;43.226;27.932;2023-04-03T10:00:23;21.02;;;7.75;;
77838;SDS011;67034;43.226;27.932;2023-04-03T10:02:51;7.70;;;4.93;;
77838;SDS011;67034;43.226;27.932;2023-04-03T10:05:27;9.23;;;5.10;;
77838;SDS011;67034;43.226;27.932;2023-04-03T10:10:46;11.93;;;4.20;;
77838;SDS011;67034;43.226;27.932;2023-04-03T10:13:31;10.80;;;4.63;;
77838;SDS011;67034;43.226;27.932;2023-04-03T10:15:59;6.40;;;4.70;;
77838;SDS011;67034;43.226;27.932;2023-04-03T10:18:30;12.93;;;6.10;;
77838;SDS011;67034;43.226;27.932;2023-04-03T10:21:04;28.42;;;10.00;;
77838;SDS011;67034;43.226;27.932;2023-04-03T10:23:37;9.90;;;5.28;;
77838;SDS011;67034;43.226;27.932;2023-04-03T10:26:09;8.38;;;4.50;;
77838;SDS011;67034;43.226;27.932;2023-04-03T10:28:43;7.55;;;4.68;;
77838;SDS011;67034;43.226;27.932;2023-04-03T10:31:15;15.57;;;6.22;;
77838;SDS011;67034;43.226;27.932;2023-04-03T10:33:48;14.68;;;7.25;;
77838;SDS011;67034;43.226;27.932;2023-04-03T10:36:24;12.02;;;4.80;;
77838;SDS011;67034;43.226;27.932;2023-04-03T10:39:00;11.48;;;4.88;;
77838;SDS011;67034;43.226;27.932;2023-04-03T10:41:32;8.13;;;3.75;;
77838;SDS011;67034;43.226;27.932;2023-04-03T10:44:10;6.90;;;4.50;;
77838;SDS011;67034;43.226;27.932;2023-04-03T10:46:41;31.50;;;7.25;;
77838;SDS011;67034;43.226;27.932;2023-04-03T10:49:16;11.55;;;5.90;;
77838;SDS011;67034;43.226;27.932;2023-04-03T10:51:51;11.73;;;5.55;;
77838;SDS011;67034;43.226;27.932;2023-04-03T10:54:24;7.82;;;4.65;;
77838;SDS011;67034;43.226;27.932;2023-04-03T10:56:52;8.32;;;5.20;;
77838;SDS011;67034;43.226;27.932;2023-04-03T10:59:23;11.63;;;6.03;;
77838;SDS011;67034;43.226;27.932;2023-04-03T11:01:55;8.88;;;4.38;;
77838;SDS011;67034;43.226;27.932;2023-04-03T11:04:23;6.90;;;4.15;;
77838;SDS011;67034;43.226;27.932;2023-04-03T11:06:53;7.80;;;3.85;;
77838;SDS011;67034;43.226;27.932;2023-04-03T11:09:23;8.25;;;4.40;;
77838;SDS011;67034;43.226;27.932;2023-04-03T11:11:53;8.30;;;4.40;;
77838;SDS011;67034;43.226;27.932;2023-04-03T11:14:26;9.18;;;4.40;;
77838;SDS011;67034;43.226;27.932;2023-04-03T11:16:55;6.88;;;4.18;;
77838;SDS011;67034;43.226;27.932;2023-04-03T11:19:32;6.60;;;3.58;;
77838;SDS011;67034;43.226;27.932;2023-04-03T11:22:03;9.15;;;6.00;;
77838;SDS011;67034;43.226;27.932;2023-04-03T11:24:35;8.60;;;4.63;;
77838;SDS011;67034;43.226;27.932;2023-04-03T11:27:03;10.98;;;4.88;;
77838;SDS011;67034;43.226;27.932;2023-04-03T11:29:32;11.98;;;6.60;;
77838;SDS011;67034;43.226;27.932;2023-04-03T11:32:08;8.90;;;3.90;;
77838;SDS011;67034;43.226;27.932;2023-04-03T11:34:43;7.28;;;4.28;;
77838;SDS011;67034;43.226;27.932;2023-04-03T11:37:13;8.00;;;3.53;;
77838;SDS011;67034;43.226;27.932;2023-04-03T11:39:49;5.95;;;3.80;;
77838;SDS011;67034;43.226;27.932;2023-04-03T11:42:23;7.75;;;3.55;;
77838;SDS011;67034;43.226;27.932;2023-04-03T11:47:51;8.00;;;3.40;;
77838;SDS011;67034;43.226;27.932;2023-04-03T11:50:30;4.97;;;3.20;;
77838;SDS011;67034;43.226;27.932;2023-04-03T11:53:25;9.50;;;3.30;;
77838;SDS011;67034;43.226;27.932;2023-04-03T12:01:45;13.73;;;4.30;;
77838;SDS011;67034;43.226;27.932;2023-04-03T12:04:12;8.55;;;3.85;;
77838;SDS011;67034;43.226;27.932;2023-04-03T12:06:52;11.52;;;4.30;;
77838;SDS011;67034;43.226;27.932;2023-04-03T12:09:34;8.70;;;4.18;;
77838;SDS011;67034;43.226;27.932;2023-04-03T12:12:24;6.72;;;3.90;;
77838;SDS011;67034;43.226;27.932;2023-04-03T12:21:18;7.85;;;3.70;;
77838;SDS011;67034;43.226;27.932;2023-04-03T12:23:57;6.78;;;3.80;;
77838;SDS011;67034;43.226;27.932;2023-04-03T12:26:30;7.28;;;4.32;;
77838;SDS011;67034;43.226;27.932;2023-04-03T12:29:01;8.85;;;5.10;;
77838;SDS011;67034;43.226;27.932;2023-04-03T12:31:37;5.82;;;3.95;;
77838;SDS011;67034;43.226;27.932;2023-04-03T12:34:18;4.47;;;3.22;;
77838;SDS011;67034;43.226;27.932;2023-04-03T12:36:59;6.57;;;4.05;;
77838;SDS011;67034;43.226;27.932;2023-04-03T12:39:36;8.75;;;4.25;;
77838;SDS011;67034;43.226;27.932;2023-04-03T12:45:15;5.32;;;4.03;;
77838;SDS011;67034;43.226;27.932;2023-04-03T12:47:44;5.57;;;3.80;;
77838;SDS011;67034;43.226;27.932;2023-04-03T12:50:16;8.50;;;4.35;;
77838;SDS011;67034;43.226;27.932;2023-04-03T12:52:49;9.38;;;5.18;;
77838;SDS011;67034;43.226;27.932;2023-04-03T12:55:19;7.72;;;4.20;;
77838;SDS011;67034;43.226;27.932;2023-04-03T12:57:45;5.75;;;3.72;;
77838;SDS011;67034;43.226;27.932;2023-04-03T13:03:05;8.05;;;5.00;;
77838;SDS011;67034;43.226;27.932;2023-04-03T13:05:32;17.85;;;6.00;;
77838;SDS011;67034;43.226;27.932;2023-04-03T13:08:02;7.32;;;3.90;;
77838;SDS011;67034;43.226;27.932;2023-04-03T13:10:30;5.75;;;3.20;;
77838;SDS011;67034;43.226;27.932;2023-04-03T13:12:58;6.63;;;4.13;;
77838;SDS011;67034;43.226;27.932;2023-04-03T13:15:40;9.07;;;4.43;;
77838;SDS011;67034;43.226;27.932;2023-04-03T13:18:20;9.88;;;5.25;;
77838;SDS011;67034;43.226;27.932;2023-04-03T13:20:47;17.33;;;8.60;;
77838;SDS011;67034;43.226;27.932;2023-04-03T13:23:16;6.90;;;4.22;;
77838;SDS011;67034;43.226;27.932;2023-04-03T13:25:45;7.93;;;4.57;;
77838;SDS011;67034;43.226;27.932;2023-04-03T13:28:13;7.05;;;4.10;;
77838;SDS011;67034;43.226;27.932;2023-04-03T13:30:53;7.93;;;4.32;;
77838;SDS011;67034;43.226;27.932;2023-04-03T13:33:21;9.05;;;5.15;;
77838;SDS011;67034;43.226;27.932;2023-04-03T13:35:54;8.35;;;4.70;;
77838;SDS011;67034;43.226;27.932;2023-04-03T13:38:24;7.95;;;4.22;;
77838;SDS011;67034;43.226;27.932;2023-04-03T13:40:52;9.30;;;3.97;;
77838;SDS011;67034;43.226;27.932;2023-04-03T13:43:21;11.65;;;3.65;;
77838;SDS011;67034;43.226;27.932;2023-04-03T13:45:56;11.00;;;4.05;;
77838;SDS011;67034;43.226;27.932;2023-04-03T13:48:34;8.82;;;4.78;;
77838;SDS011;67034;43.226;27.932;2023-04-03T13:51:05;10.55;;;4.05;;
77838;SDS011;67034;43.226;27.932;2023-04-03T13:53:44;7.43;;;4.13;;
77838;SDS011;67034;43.226;27.932;2023-04-03T13:56:16;8.20;;;4.47;;
77838;SDS011;67034;43.226;27.932;2023-04-03T13:58:56;12.38;;;5.90;;
77838;SDS011;67034;43.226;27.932;2023-04-03T14:01:38;10.50;;;5.10;;
77838;SDS011;67034;43.226;27.932;2023-04-03T14:04:12;13.43;;;6.88;;
77838;SDS011;67034;43.226;27.932;2023-04-03T14:06:40;8.43;;;3.78;;
77838;SDS011;67034;43.226;27.932;2023-04-03T14:09:08;7.85;;;4.30;;
77838;SDS011;67034;43.226;27.932;2023-04-03T14:11:33;8.45;;;4.20;;
77838;SDS011;67034;43.226;27.932;2023-04-03T14:14:00;7.32;;;4.40;;
77838;SDS011;67034;43.226;27.932;2023-04-03T14:16:30;8.45;;;4.50;;
77838;SDS011;67034;43.226;27.932;2023-04-03T14:18:58;7.75;;;4.35;;
77838;SDS011;67034;43.226;27.932;2023-04-03T14:21:23;6.47;;;4.20;;
77838;SDS011;67034;43.226;27.932;2023-04-03T14:23:49;11.85;;;5.68;;
77838;SDS011;67034;43.226;27.932;2023-04-03T14:26:17;9.68;;;5.07;;
77838;SDS011;67034;43.226;27.932;2023-04-03T14:28:45;9.15;;;5.10;;
77838;SDS011;67034;43.226;27.932;2023-04-03T14:31:13;11.63;;;5.78;;
77838;SDS011;67034;43.226;27.932;2023-04-03T14:33:40;10.15;;;4.58;;
77838;SDS011;67034;43.226;27.932;2023-04-03T14:36:11;7.55;;;4.10;;
77838;SDS011;67034;43.226;27.932;2023-04-03T14:38:38;9.27;;;4.93;;
77838;SDS011;67034;43.226;27.932;2023-04-03T14:41:04;7.00;;;4.43;;
77838;SDS011;67034;43.226;27.932;2023-04-03T14:43:31;6.53;;;3.95;;
77838;SDS011;67034;43.226;27.932;2023-04-03T14:45:57;8.18;;;4.95;;
77838;SDS011;67034;43.226;27.932;2023-04-03T14:48:24;12.90;;;5.82;;
77838;SDS011;67034;43.226;27.932;2023-04-03T14:50:52;11.45;;;4.80;;
77838;SDS011;67034;43.226;27.932;2023-04-03T14:53:19;6.57;;;3.87;;
77838;SDS011;67034;43.226;27.932;2023-04-03T14:55:49;4.75;;;3.35;;
77838;SDS011;67034;43.226;27.932;2023-04-03T14:58:17;7.55;;;4.15;;
77838;SDS011;67034;43.226;27.932;2023-04-03T15:00:46;7.25;;;3.85;;
77838;SDS011;67034;43.226;27.932;2023-04-03T15:03:14;8.55;;;4.80;;
77838;SDS011;67034;43.226;27.932;2023-04-03T15:05:41;8.68;;;4.78;;
77838;SDS011;67034;43.226;27.932;2023-04-03T15:08:08;5.50;;;4.13;;
77838;SDS011;67034;43.226;27.932;2023-04-03T15:10:44;5.40;;;3.63;;
77838;SDS011;67034;43.226;27.932;2023-04-03T15:13:10;6.80;;;4.10;;
77838;SDS011;67034;43.226;27.932;2023-04-03T15:15:37;5.55;;;3.42;;
77838;SDS011;67034;43.226;27.932;2023-04-03T15:18:04;7.15;;;3.95;;
77838;SDS011;67034;43.226;27.932;2023-04-03T15:20:30;6.10;;;3.67;;
77838;SDS011;67034;43.226;27.932;2023-04-03T15:22:58;7.05;;;3.15;;